Tokyo, Japan
Current Conditions -  °F | °C
As of 3:30 PM on Wednesday 28 Jan 2015 (Local Time) from RJTT Reporting Station
Broken Clouds Broken Clouds  
Wind Chill: 39°   Ceiling: 9000
Heat Index: 46°   Visibility: 6mi
Dew Point: 16°   Wind: 21mph
Humidity: 29%   Direction: 350°N
Pressure: 30.03"   Gusts: 32mph
Location:  35.67°N, 139.77°E
Report Text: RJTT 280630Z 35018G28KT 9999 FEW030 BKN090 08/M09 Q1017 NOSIG
Loading
Personal Weather Stations






























Interactive Weather Map New forecast layout! Learn more

10-Day Weather Forecast

Advertisements
Track Severe Weather on mobile